Time;durP1;ratioP1;P1;durP2;ratioP2;P2;SDS_P1;SDS_P2;PMS_P1;PMS_P2;Temp;Humidity;BMP_temperature;BMP_pressure;BME280_temperature;BME280_humidity;BME280_pressure;Samples;Min_cycle;Max_cycle;Signal;HPM_P1;HPM_P2
2022/12/16 00:02:09;;;;;;;;;;;20.70;36.60;;;;;;5012891;23;20013;-72
2022/12/16 00:04:35;;;;;;;;;;;20.70;36.70;;;;;;5015039;23;20032;-53
2022/12/16 00:07:00;;;;;;;;;;;20.70;36.90;;;;;;4947045;28;19927;-53
2022/12/16 00:09:26;;;;;;;;;;;20.60;36.80;;;;;;4953275;28;20301;-53
2022/12/16 00:11:51;;;;;;;;;;;20.60;36.80;;;;;;4947470;28;20344;-53
2022/12/16 00:14:17;;;;;;;;;;;20.60;37.00;;;;;;4946612;28;19918;-54
2022/12/16 00:16:42;;;;;;;;;;;20.50;36.90;;;;;;4947281;28;19914;-53
2022/12/16 00:19:07;;;;;;;;;;;20.50;36.90;;;;;;4954399;28;19929;-53
2022/12/16 00:21:33;;;;;;;;;;;20.50;36.90;;;;;;4946504;29;19922;-53
2022/12/16 00:23:58;;;;;;;;;;;20.50;36.70;;;;;;4947053;29;20052;-53
2022/12/16 00:26:24;;;;;;;;;;;20.50;36.90;;;;;;4946865;29;19918;-54
2022/12/16 00:28:49;;;;;;;;;;;20.60;36.80;;;;;;4950406;28;20366;-54
2022/12/16 00:31:15;;;;;;;;;;;20.60;36.70;;;;;;4950385;28;19921;-54
2022/12/16 00:33:40;;;;;;;;;;;20.70;36.70;;;;;;4947150;28;20323;-54
2022/12/16 00:36:06;;;;;;;;;;;20.70;36.60;;;;;;4962127;28;20304;-53
2022/12/16 00:38:31;;;;;;;;;;;20.70;36.60;;;;;;4948574;28;20270;-53
2022/12/16 00:40:57;;;;;;;;;;;20.70;36.60;;;;;;4946690;28;19946;-54
2022/12/16 00:43:22;;;;;;;;;;;20.70;36.50;;;;;;4947154;29;19914;-53
2022/12/16 00:45:48;;;;;;;;;;;20.70;36.30;;;;;;4946629;29;19922;-53
2022/12/16 00:48:13;;;;;;;;;;;20.70;36.50;;;;;;4947286;28;19934;-54
2022/12/16 00:50:38;;;;;;;;;;;20.70;36.60;;;;;;4946561;29;20432;-53
2022/12/16 00:53:04;;;;;;;;;;;20.70;36.50;;;;;;4948115;29;19965;-53
2022/12/16 00:55:29;;;;;;;;;;;20.70;36.50;;;;;;4949678;29;19962;-54
2022/12/16 00:57:55;;;;;;;;;;;20.70;36.50;;;;;;4946052;29;19972;-54
2022/12/16 01:00:21;;;;;;;;;;;20.70;36.50;;;;;;4946447;29;19914;-53
2022/12/16 01:02:47;;;;;;;;;;;20.70;36.70;;;;;;4946303;28;19925;-54
2022/12/16 01:05:13;;;;;;;;;;;20.60;36.50;;;;;;4936250;28;19923;-54
2022/12/16 01:07:38;;;;;;;;;;;20.60;36.40;;;;;;4937099;28;19919;-54
2022/12/16 01:10:05;;;;;;;;;;;20.60;36.70;;;;;;4942913;29;19925;-54
2022/12/16 01:12:30;;;;;;;;;;;20.50;36.40;;;;;;4950668;28;19914;-54
2022/12/16 01:14:56;;;;;;;;;;;20.50;36.80;;;;;;4951608;28;20002;-54
2022/12/16 01:17:21;;;;;;;;;;;20.50;36.70;;;;;;4948995;29;19914;-54
2022/12/16 01:19:47;;;;;;;;;;;20.40;36.70;;;;;;4940621;29;19915;-54
2022/12/16 01:22:13;;;;;;;;;;;20.40;36.80;;;;;;4939384;29;19962;-54
2022/12/16 01:24:38;;;;;;;;;;;20.40;36.70;;;;;;4938113;28;19918;-52
2022/12/16 01:27:03;;;;;;;;;;;20.40;36.70;;;;;;4936977;29;19926;-53
2022/12/16 01:29:31;;;;;;;;;;;20.40;37.30;;;;;;4934623;29;22359;-52
2022/12/16 01:31:56;;;;;;;;;;;20.50;36.70;;;;;;4939264;29;19929;-53
2022/12/16 01:34:22;;;;;;;;;;;20.50;36.60;;;;;;4937425;29;19919;-54
2022/12/16 01:36:48;;;;;;;;;;;20.60;37.20;;;;;;4951464;28;19977;-53
2022/12/16 01:39:13;;;;;;;;;;;20.60;36.20;;;;;;4941434;29;20370;-53
2022/12/16 01:41:39;;;;;;;;;;;20.70;36.30;;;;;;4940884;29;19985;-54
2022/12/16 01:44:14;;;;;;;;;;;20.70;36.20;;;;;;4937398;29;19921;-54
2022/12/16 01:46:40;;;;;;;;;;;20.80;36.10;;;;;;4936839;28;20299;-54
2022/12/16 01:49:07;;;;;;;;;;;20.80;36.10;;;;;;4919692;28;19919;-53
2022/12/16 01:51:33;;;;;;;;;;;20.90;36.00;;;;;;4927291;28;19950;-53
2022/12/16 01:54:18;;;;;;;;;;;20.80;35.90;;;;;;4942302;28;20297;-55
2022/12/16 01:56:44;;;;;;;;;;;20.80;36.10;;;;;;4936158;28;20382;-52
2022/12/16 01:59:10;;;;;;;;;;;20.80;36.00;;;;;;4942867;28;19973;-53
2022/12/16 02:01:36;;;;;;;;;;;20.80;36.10;;;;;;4939888;28;19926;-53
2022/12/16 02:04:01;;;;;;;;;;;20.70;36.10;;;;;;4942485;29;19984;-53
2022/12/16 02:06:27;;;;;;;;;;;20.70;36.30;;;;;;4940710;28;19926;-55
2022/12/16 02:08:54;;;;;;;;;;;20.50;36.40;;;;;;4923281;28;19954;-53
2022/12/16 02:11:39;;;;;;;;;;;20.40;36.50;;;;;;4923850;28;19915;-53
2022/12/16 02:14:09;;;;;;;;;;;20.40;36.60;;;;;;4925231;28;19915;-53
2022/12/16 02:16:38;;;;;;;;;;;20.40;36.60;;;;;;4938615;28;19926;-54
2022/12/16 02:19:03;;;;;;;;;;;20.30;36.70;;;;;;4924587;28;19919;-54
2022/12/16 02:21:32;;;;;;;;;;;20.30;36.70;;;;;;4941841;29;20278;-54
2022/12/16 02:24:16;;;;;;;;;;;20.30;36.70;;;;;;4941552;28;19919;-54
2022/12/16 02:26:52;;;;;;;;;;;20.40;36.60;;;;;;4939741;28;20366;-54
2022/12/16 02:29:36;;;;;;;;;;;20.40;36.40;;;;;;4928682;29;20353;-54
2022/12/16 02:32:08;;;;;;;;;;;20.50;36.30;;;;;;4945772;28;19922;-54
2022/12/16 02:34:54;;;;;;;;;;;20.60;36.20;;;;;;4926354;28;20050;-54
2022/12/16 02:37:20;;;;;;;;;;;20.70;36.00;;;;;;4948994;28;19922;-54
2022/12/16 02:39:49;;;;;;;;;;;20.80;35.90;;;;;;4941528;28;19923;-54
2022/12/16 02:42:16;;;;;;;;;;;20.80;35.70;;;;;;4938601;28;19911;-53
2022/12/16 02:44:41;;;;;;;;;;;20.80;35.60;;;;;;4930731;29;19925;-53
2022/12/16 02:47:07;;;;;;;;;;;20.90;36.10;;;;;;4939445;29;20385;-53
2022/12/16 02:49:32;;;;;;;;;;;20.90;35.50;;;;;;4938030;29;20448;-53
2022/12/16 02:51:58;;;;;;;;;;;20.90;35.40;;;;;;4938205;29;19964;-53
2022/12/16 02:54:23;;;;;;;;;;;20.90;36.00;;;;;;4947186;28;20462;-54
2022/12/16 02:56:53;;;;;;;;;;;20.80;35.50;;;;;;4952779;29;19918;-54
2022/12/16 02:59:22;;;;;;;;;;;20.80;35.50;;;;;;4952824;28;19949;-54
2022/12/16 03:01:56;;;;;;;;;;;20.70;35.70;;;;;;4924128;29;19941;-54
2022/12/16 03:04:24;;;;;;;;;;;20.60;35.90;;;;;;4939160;28;19922;-53
2022/12/16 03:06:50;;;;;;;;;;;20.50;36.10;;;;;;4945986;29;19968;-54
2022/12/16 03:09:18;;;;;;;;;;;20.50;36.10;;;;;;4938119;29;19915;-55
2022/12/16 03:11:43;;;;;;;;;;;20.40;36.10;;;;;;4920719;28;20367;-55
2022/12/16 03:14:09;;;;;;;;;;;20.40;36.20;;;;;;4937763;29;19930;-55
2022/12/16 03:16:35;;;;;;;;;;;20.40;36.20;;;;;;4923277;28;19919;-54
2022/12/16 03:19:01;;;;;;;;;;;20.40;36.10;;;;;;4943133;29;19915;-53
2022/12/16 03:21:32;;;;;;;;;;;20.40;36.00;;;;;;4921837;28;19954;-54
2022/12/16 03:23:58;;;;;;;;;;;20.40;36.00;;;;;;4921302;28;19914;-53
2022/12/16 03:26:25;;;;;;;;;;;20.50;36.00;;;;;;4939410;29;19922;-53
2022/12/16 03:29:00;;;;;;;;;;;20.50;35.80;;;;;;4936617;28;20025;-54
2022/12/16 03:31:29;;;;;;;;;;;20.60;35.70;;;;;;4921100;28;19915;-53
2022/12/16 03:33:59;;;;;;;;;;;20.70;35.50;;;;;;4941238;28;20453;-53
2022/12/16 03:36:24;;;;;;;;;;;20.80;35.40;;;;;;4942557;28;20021;-53
2022/12/16 03:38:50;;;;;;;;;;;20.80;35.30;;;;;;4922471;29;19926;-54
2022/12/16 03:41:15;;;;;;;;;;;20.90;35.20;;;;;;4923952;28;20393;-53
2022/12/16 03:43:41;;;;;;;;;;;20.90;35.20;;;;;;4921480;29;20367;-55
2022/12/16 03:46:06;;;;;;;;;;;20.90;35.10;;;;;;4920516;29;20033;-56
2022/12/16 03:48:32;;;;;;;;;;;20.90;35.10;;;;;;4941116;28;19976;-54
2022/12/16 03:50:58;;;;;;;;;;;20.90;35.20;;;;;;4939852;28;20297;-54
2022/12/16 03:53:25;;;;;;;;;;;20.90;35.30;;;;;;4941291;28;20040;-53
2022/12/16 03:55:52;;;;;;;;;;;20.80;35.30;;;;;;4937857;29;19933;-54
2022/12/16 03:58:17;;;;;;;;;;;20.80;35.40;;;;;;4939370;28;20366;-54
2022/12/16 04:00:42;;;;;;;;;;;20.70;35.50;;;;;;4943226;28;19925;-53
2022/12/16 04:03:08;;;;;;;;;;;20.70;35.70;;;;;;4937332;28;19922;-53
2022/12/16 04:05:33;;;;;;;;;;;20.60;35.70;;;;;;4939780;29;19937;-54
2022/12/16 04:07:59;;;;;;;;;;;20.50;35.80;;;;;;4942392;29;19964;-54
2022/12/16 04:24:19;;;;;;;;;;;20.40;35.70;;;;;;4938558;29;19975;-55
2022/12/16 04:29:29;;;;;;;;;;;20.60;35.60;;;;;;4938602;29;20030;-54
2022/12/16 04:31:54;;;;;;;;;;;20.70;35.50;;;;;;4944896;29;20001;-53
2022/12/16 04:34:26;;;;;;;;;;;20.70;35.40;;;;;;4942357;28;19915;-54
